Time;durP1;ratioP1;P1;durP2;ratioP2;P2;SDS_P1;SDS_P2;PMS_P1;PMS_P2;Temp;Humidity;BMP_temperature;BMP_pressure;BME280_temperature;BME280_humidity;BME280_pressure;Samples;Min_cycle;Max_cycle;Signal;HPM_P1;HPM_P2
2022/02/24 00:02:18;;;;;;;6.73;1.87;;;6.00;99.90;;;;;;5068272;28;20226;-70
2022/02/24 00:04:45;;;;;;;9.07;2.17;;;5.90;99.90;;;;;;5070901;28;20670;-70
2022/02/24 00:07:12;;;;;;;5.40;2.13;;;5.90;99.90;;;;;;5070611;28;20202;-72
2022/02/24 00:09:41;;;;;;;4.67;1.83;;;6.10;99.90;;;;;;5070294;28;20553;-71
2022/02/24 00:12:09;;;;;;;4.70;2.00;;;6.00;99.90;;;;;;5070529;28;20256;-73
2022/02/24 00:14:36;;;;;;;6.33;1.97;;;6.30;99.90;;;;;;5069362;28;20218;-68
2022/02/24 00:17:03;;;;;;;6.00;1.67;;;6.10;99.90;;;;;;5069861;28;20736;-74
2022/02/24 00:19:31;;;;;;;7.30;3.23;;;5.90;99.90;;;;;;5070373;28;20622;-74
2022/02/24 00:21:58;;;;;;;6.40;2.67;;;6.00;99.90;;;;;;5069630;28;20230;-72
2022/02/24 00:24:25;;;;;;;7.97;2.17;;;6.40;57.90;;;;;;5068720;28;20252;-73
2022/02/24 00:26:53;;;;;;;9.63;2.17;;;6.20;68.90;;;;;;5069589;28;20210;-68
2022/02/24 00:29:20;;;;;;;7.93;3.13;;;6.30;99.90;;;;;;5069389;28;20263;-71
2022/02/24 00:31:47;;;;;;;8.17;2.17;;;6.00;99.90;;;;;;5069362;28;20601;-70
2022/02/24 00:34:15;;;;;;;7.83;2.20;;;5.80;1.00;;;;;;5070709;28;20199;-72
2022/02/24 00:36:42;;;;;;;7.03;2.77;;;5.60;1.00;;;;;;5069056;28;20214;-70
2022/02/24 00:39:09;;;;;;;6.73;2.00;;;5.40;1.00;;;;;;5069072;28;20669;-72
2022/02/24 00:41:37;;;;;;;7.17;2.37;;;5.80;1.00;;;;;;5068643;28;20272;-72
2022/02/24 00:44:05;;;;;;;6.13;3.10;;;5.90;1.00;;;;;;5070000;28;20288;-71
2022/02/24 00:46:32;;;;;;;7.70;2.30;;;5.90;1.00;;;;;;5068788;28;20594;-73
2022/02/24 00:48:59;;;;;;;7.27;2.40;;;5.80;1.00;;;;;;5068327;28;20252;-67
2022/02/24 00:51:26;;;;;;;8.00;2.40;;;5.70;1.00;;;;;;5068172;28;20240;-68
2022/02/24 00:53:53;;;;;;;13.10;2.37;;;5.70;1.00;;;;;;5069836;28;20240;-71
2022/02/24 00:56:20;;;;;;;6.93;2.33;;;5.70;1.00;;;;;;5069663;28;20260;-73
2022/02/24 00:58:47;;;;;;;4.87;2.23;;;5.80;1.00;;;;;;5068118;28;20206;-70
2022/02/24 01:01:16;;;;;;;7.67;2.60;;;5.90;1.00;;;;;;5068706;28;20264;-70
2022/02/24 01:03:43;;;;;;;5.97;2.30;;;5.90;1.00;;;;;;5067752;28;20199;-69
2022/02/24 01:06:10;;;;;;;9.27;2.40;;;6.00;1.00;;;;;;5068750;28;20198;-69
2022/02/24 01:08:37;;;;;;;4.97;2.50;;;6.00;1.00;;;;;;5070261;28;20195;-67
2022/02/24 01:11:04;;;;;;;7.27;2.30;;;6.20;1.00;;;;;;5072067;28;20202;-67
2022/02/24 01:13:32;;;;;;;6.87;2.37;;;6.10;1.00;;;;;;5071736;28;20637;-69
2022/02/24 01:15:59;;;;;;;5.93;1.97;;;6.10;1.00;;;;;;5055282;28;20241;-69
2022/02/24 01:18:29;;;;;;;7.57;2.30;;;6.30;1.00;;;;;;5073093;28;20198;-69
2022/02/24 01:20:56;;;;;;;7.07;2.10;;;6.40;99.90;;;;;;5072247;28;20198;-69
2022/02/24 01:23:23;;;;;;;12.53;2.70;;;6.40;99.90;;;;;;5073491;28;21328;-69
2022/02/24 01:25:50;;;;;;;6.93;2.20;;;6.50;99.90;;;;;;5073191;28;20198;-70
2022/02/24 01:28:17;;;;;;;6.37;2.40;;;6.50;99.90;;;;;;5073209;28;20202;-68
2022/02/24 01:30:44;;;;;;;5.73;1.90;;;6.80;1.00;;;;;;5071306;28;20214;-69
2022/02/24 01:33:11;;;;;;;5.27;1.93;;;6.90;1.00;;;;;;5072074;28;20198;-69
2022/02/24 01:35:39;;;;;;;4.03;2.07;;;7.10;1.00;;;;;;5072745;28;20656;-69
2022/02/24 01:38:07;;;;;;;4.80;1.63;;;7.20;1.00;;;;;;5072058;28;20705;-72
2022/02/24 01:40:35;;;;;;;6.43;2.10;;;7.40;99.90;;;;;;5073045;28;20203;-70
2022/02/24 01:43:02;;;;;;;5.33;1.80;;;7.20;1.00;;;;;;5072475;28;20636;-68
2022/02/24 01:45:29;;;;;;;6.17;2.37;;;7.20;1.00;;;;;;5069283;28;20202;-67
2022/02/24 01:47:58;;;;;;;4.10;1.80;;;7.20;1.00;;;;;;5070195;28;20222;-67
2022/02/24 01:50:26;;;;;;;6.30;2.40;;;7.30;99.90;;;;;;5067525;28;20298;-67
2022/02/24 01:52:55;;;;;;;5.33;1.93;;;7.30;1.00;;;;;;5072727;28;20206;-67
2022/02/24 01:55:21;;;;;;;5.53;2.20;;;7.30;1.00;;;;;;5071206;28;20206;-67
2022/02/24 01:57:49;;;;;;;6.03;1.90;;;7.30;1.00;;;;;;5072288;28;20562;-68
2022/02/24 02:00:17;;;;;;;4.27;1.77;;;7.20;1.00;;;;;;5072012;28;20640;-70
2022/02/24 02:02:45;;;;;;;6.23;1.80;;;7.20;1.00;;;;;;5072411;28;20222;-70
2022/02/24 02:05:12;;;;;;;6.10;2.10;;;7.30;1.00;;;;;;5072857;28;20206;-67
2022/02/24 02:07:40;;;;;;;6.37;2.37;;;7.60;99.90;;;;;;5072281;28;20206;-67
2022/02/24 02:10:09;;;;;;;5.07;1.87;;;7.60;99.90;;;;;;5071722;28;20285;-68
2022/02/24 02:12:47;;;;;;;5.33;1.90;;;7.40;99.90;;;;;;5052942;28;20214;-67
2022/02/24 02:15:14;;;;;;;5.07;2.03;;;7.40;1.00;;;;;;5061757;28;20623;-67
2022/02/24 02:17:41;;;;;;;6.00;2.10;;;7.40;1.00;;;;;;5072521;28;20237;-72
2022/02/24 02:20:09;;;;;;;6.27;2.17;;;7.50;99.90;;;;;;5071081;28;20202;-73
2022/02/24 02:22:38;;;;;;;5.67;2.43;;;7.40;1.00;;;;;;5072138;28;20287;-69
2022/02/24 02:25:07;;;;;;;8.17;2.50;;;7.40;1.00;;;;;;5064115;28;20260;-72
2022/02/24 02:27:35;;;;;;;6.90;1.90;;;7.40;99.90;;;;;;5070606;28;20260;-69
2022/02/24 02:30:03;;;;;;;7.40;2.20;;;7.40;99.90;;;;;;5069734;28;20635;-67
2022/02/24 02:32:31;;;;;;;4.00;2.07;;;7.30;1.00;;;;;;5071084;28;20206;-69
2022/02/24 02:34:58;;;;;;;6.67;2.13;;;7.30;1.00;;;;;;5071086;28;20401;-69
2022/02/24 02:37:25;;;;;;;10.77;3.23;;;7.30;1.00;;;;;;5071108;28;20613;-67
2022/02/24 02:39:53;;;;;;;7.90;2.20;;;7.30;1.00;;;;;;5071637;28;20194;-69
2022/02/24 02:42:20;;;;;;;8.30;2.53;;;7.20;1.00;;;;;;5071052;28;20229;-69
2022/02/24 02:44:47;;;;;;;4.87;2.13;;;7.10;1.00;;;;;;5071737;28;20205;-69
2022/02/24 02:47:14;;;;;;;6.40;2.40;;;7.00;1.00;;;;;;5070631;28;20256;-67
2022/02/24 02:49:41;;;;;;;5.47;2.20;;;7.00;1.00;;;;;;5071021;28;20706;-71
2022/02/24 02:52:08;;;;;;;8.40;2.10;;;7.00;1.00;;;;;;5071617;28;20214;-72
2022/02/24 02:54:35;;;;;;;7.17;2.43;;;7.10;1.00;;;;;;5070942;28;20202;-71
2022/02/24 02:57:04;;;;;;;7.67;2.40;;;7.30;1.00;;;;;;5069000;28;20206;-71
2022/02/24 02:59:31;;;;;;;5.77;2.17;;;7.30;1.00;;;;;;5071325;28;20202;-69
2022/02/24 03:01:58;;;;;;;6.70;2.07;;;7.20;1.00;;;;;;5070162;28;20214;-69
2022/02/24 03:04:25;;;;;;;8.23;2.17;;;7.10;1.00;;;;;;5070452;28;20854;-69
2022/02/24 03:06:52;;;;;;;4.97;1.97;;;7.10;1.00;;;;;;5069504;28;20199;-73
2022/02/24 03:09:19;;;;;;;6.47;2.00;;;7.20;1.00;;;;;;5071168;28;20268;-73
2022/02/24 03:11:46;;;;;;;6.70;2.10;;;7.20;1.00;;;;;;5070566;28;20210;-72
2022/02/24 03:14:15;;;;;;;8.40;2.60;;;7.20;1.00;;;;;;5069933;28;20206;-67
2022/02/24 03:16:42;;;;;;;5.53;2.73;;;7.30;1.00;;;;;;5070768;28;20206;-67
2022/02/24 03:19:11;;;;;;;8.23;2.70;;;7.30;1.00;;;;;;5072006;28;20205;-67
2022/02/24 03:21:38;;;;;;;5.30;2.20;;;7.30;1.00;;;;;;5071345;28;20233;-67
2022/02/24 03:24:05;;;;;;;3.93;1.90;;;7.40;1.00;;;;;;5072144;28;20205;-67
2022/02/24 03:26:32;;;;;;;4.10;1.97;;;7.40;1.00;;;;;;5071952;28;20198;-67
2022/02/24 03:28:59;;;;;;;8.37;2.20;;;7.40;1.00;;;;;;5071396;28;20194;-67
2022/02/24 03:31:27;;;;;;;3.80;1.97;;;7.30;1.00;;;;;;5071953;28;20202;-67
2022/02/24 03:33:56;;;;;;;3.57;2.60;;;7.30;1.00;;;;;;5071170;28;20206;-67
2022/02/24 03:36:23;;;;;;;4.57;1.90;;;7.30;1.00;;;;;;5071582;28;20244;-67
2022/02/24 03:38:50;;;;;;;4.80;2.23;;;7.40;1.00;;;;;;5071766;28;20300;-67
2022/02/24 03:41:17;;;;;;;7.33;2.90;;;7.40;1.00;;;;;;5071546;28;20207;-67
2022/02/24 03:43:44;;;;;;;3.83;2.10;;;7.40;1.00;;;;;;5071743;28;20218;-67
2022/02/24 03:46:10;;;;;;;4.90;2.57;;;7.50;1.00;;;;;;5071617;28;20207;-67
2022/02/24 03:48:39;;;;;;;6.93;2.10;;;7.50;1.00;;;;;;5066210;28;20205;-67
2022/02/24 03:51:06;;;;;;;5.67;2.20;;;7.40;1.00;;;;;;5070158;28;20194;-67
2022/02/24 03:53:32;;;;;;;5.97;2.87;;;7.40;1.00;;;;;;5071739;28;20644;-67
2022/02/24 03:55:59;;;;;;;5.20;2.10;;;7.50;1.00;;;;;;5071626;28;20206;-67
2022/02/24 03:58:26;;;;;;;5.50;2.10;;;7.40;1.00;;;;;;5071928;28;20194;-67
2022/02/24 04:00:53;;;;;;;5.40;2.00;;;7.40;1.00;;;;;;5072195;28;20214;-68
2022/02/24 04:03:20;;;;;;;4.20;2.20;;;7.30;1.00;;;;;;5071402;28;20225;-68
2022/02/24 04:05:48;;;;;;;3.77;2.40;;;7.40;1.00;;;;;;5069727;28;20207;-68
2022/02/24 04:08:15;;;;;;;5.50;2.33;;;7.30;1.00;;;;;;5071046;28;20200;-67
2022/02/24 04:10:42;;;;;;;7.33;2.60;;;7.30;1.00;;;;;;5071084;28;20208;-67
2022/02/24 04:13:09;;;;;;;6.20;2.40;;;7.30;1.00;;;;;;5071602;28;20202;-67
2022/02/24 04:15:36;;;;;;;6.57;2.87;;;7.30;1.00;;;;;;5069920;28;20665;-68
2022/02/24 04:18:03;;;;;;;7.80;3.00;;;7.50;1.00;;;;;;5070044;28;20199;-67
2022/02/24 04:20:30;;;;;;;5.30;2.33;;;7.60;1.00;;;;;;5071230;28;20640;-68
2022/02/24 04:22:58;;;;;;;7.90;2.80;;;7.60;1.00;;;;;;5071694;28;20710;-67
2022/02/24 04:25:25;;;;;;;8.57;2.77;;;7.80;1.00;;;;;;5071714;28;20210;-67
2022/02/24 04:27:53;;;;;;;7.63;3.03;;;7.90;1.00;;;;;;5071542;28;20250;-67
2022/02/24 04:30:21;;;;;;;5.40;2.17;;;8.00;1.00;;;;;;5070851;28;20206;-67
2022/02/24 04:32:48;;;;;;;8.73;2.27;;;8.00;1.00;;;;;;5070972;28;20671;-67
2022/02/24 04:35:16;;;;;;;7.23;2.20;;;8.00;1.00;;;;;;5071839;28;20535;-68
2022/02/24 04:37:43;;;;;;;8.53;3.00;;;8.00;1.00;;;;;;5070982;28;20296;-67
2022/02/24 04:40:12;;;;;;;4.37;1.87;;;8.00;1.00;;;;;;5071892;28;20206;-68
2022/02/24 04:42:39;;;;;;;6.17;2.70;;;8.00;1.00;;;;;;5071003;28;20619;-67
2022/02/24 04:45:07;;;;;;;7.63;2.60;;;8.00;1.00;;;;;;5073697;28;20561;-68
2022/02/24 04:47:34;;;;;;;6.57;2.00;;;8.00;1.00;;;;;;5075295;28;20213;-67
2022/02/24 04:50:00;;;;;;;9.23;2.53;;;8.00;99.90;;;;;;5075249;28;20206;-67
2022/02/24 04:52:27;;;;;;;6.77;2.03;;;8.10;99.90;;;;;;5074550;28;20202;-67
2022/02/24 04:54:54;;;;;;;8.90;3.13;;;8.20;99.90;;;;;;5074437;28;20206;-68
2022/02/24 04:57:22;;;;;;;4.93;2.07;;;8.10;99.90;;;;;;5074853;28;20213;-68
2022/02/24 04:59:49;;;;;;;5.83;2.17;;;8.00;1.00;;;;;;5075033;28;20222;-67
2022/02/24 05:02:16;;;;;;;6.90;2.50;;;8.00;1.00;;;;;;5074704;28;20747;-67
2022/02/24 05:04:43;;;;;;;7.27;2.50;;;8.00;1.00;;;;;;5074967;28;20198;-67
2022/02/24 05:07:10;;;;;;;6.50;2.20;;;7.90;1.00;;;;;;5074475;28;20210;-67
2022/02/24 05:09:39;;;;;;;7.83;2.33;;;7.90;1.00;;;;;;5075207;28;20232;-67
2022/02/24 05:12:07;;;;;;;5.37;2.50;;;8.00;1.00;;;;;;5074425;28;20670;-67
2022/02/24 05:14:35;;;;;;;3.47;1.93;;;8.00;1.00;;;;;;5075219;28;20242;-67
2022/02/24 05:17:02;;;;;;;5.07;2.30;;;8.00;1.00;;;;;;5074285;28;20210;-67
2022/02/24 05:19:29;;;;;;;4.03;1.93;;;8.00;1.00;;;;;;5075129;28;20683;-67
2022/02/24 05:21:56;;;;;;;6.77;2.40;;;8.00;1.00;;;;;;5074447;28;20198;-68
2022/02/24 05:24:23;;;;;;;9.80;2.70;;;8.10;1.00;;;;;;5075230;28;20210;-68
2022/02/24 05:26:49;;;;;;;7.90;2.97;;;8.10;99.90;;;;;;5074591;28;20206;-67
2022/02/24 05:29:16;;;;;;;5.83;2.50;;;8.10;99.90;;;;;;5074527;28;20216;-67
2022/02/24 05:31:44;;;;;;;6.17;3.13;;;8.00;1.00;;;;;;5074263;28;20289;-67
2022/02/24 05:34:11;;;;;;;9.87;3.63;;;8.00;99.90;;;;;;5074160;28;20202;-68
2022/02/24 05:36:38;;;;;;;6.20;2.40;;;7.90;1.00;;;;;;5074455;28;20205;-67
2022/02/24 05:39:05;;;;;;;3.87;2.67;;;8.00;1.00;;;;;;5073192;28;20279;-68
2022/02/24 05:41:32;;;;;;;5.93;2.20;;;7.90;1.00;;;;;;5074159;28;20205;-67
2022/02/24 05:43:59;;;;;;;9.00;2.73;;;7.80;1.00;;;;;;5074391;28;20699;-67
2022/02/24 05:46:26;;;;;;;5.10;2.33;;;7.90;1.00;;;;;;5074073;28;20264;-67
2022/02/24 05:48:54;;;;;;;5.03;2.37;;;7.90;1.00;;;;;;5074343;28;20292;-67
2022/02/24 05:51:21;;;;;;;3.83;2.60;;;7.90;1.00;;;;;;5074906;28;20213;-68
2022/02/24 05:53:48;;;;;;;5.50;2.67;;;8.00;1.00;;;;;;5073098;28;20656;-67
2022/02/24 05:56:15;;;;;;;6.03;2.57;;;7.90;1.00;;;;;;5072400;28;20196;-67
2022/02/24 05:58:42;;;;;;;6.57;2.17;;;8.00;1.00;;;;;;5074283;28;20209;-68
2022/02/24 06:01:10;;;;;;;7.47;2.57;;;8.00;1.00;;;;;;5074183;28;20209;-67
2022/02/24 06:03:37;;;;;;;4.27;2.50;;;8.00;1.00;;;;;;5074344;28;20790;-68
2022/02/24 06:06:05;;;;;;;7.07;2.67;;;7.90;1.00;;;;;;5073277;28;20206;-67
2022/02/24 06:08:32;;;;;;;5.93;2.70;;;8.00;1.00;;;;;;5073682;28;20293;-67
2022/02/24 06:11:00;;;;;;;5.97;2.33;;;7.90;1.00;;;;;;5074046;28;20210;-68
2022/02/24 06:13:27;;;;;;;6.90;2.40;;;8.00;1.00;;;;;;5073945;28;20213;-67
2022/02/24 06:15:54;;;;;;;7.40;2.53;;;7.90;1.00;;;;;;5072212;28;20214;-68
2022/02/24 06:18:21;;;;;;;8.40;2.43;;;7.90;1.00;;;;;;5073918;28;20203;-67
2022/02/24 06:20:48;;;;;;;6.97;2.60;;;8.00;1.00;;;;;;5072958;28;20555;-67
2022/02/24 06:23:16;;;;;;;8.17;2.20;;;8.00;1.00;;;;;;5073344;28;20222;-67
2022/02/24 06:25:43;;;;;;;4.23;2.40;;;7.90;1.00;;;;;;5073553;28;20228;-68
2022/02/24 06:28:10;;;;;;;6.07;2.57;;;7.90;1.00;;;;;;5073129;28;20578;-67
2022/02/24 06:30:37;;;;;;;4.50;2.50;;;7.80;1.00;;;;;;5072265;28;20674;-68
2022/02/24 06:33:04;;;;;;;4.47;2.20;;;7.80;1.00;;;;;;5072858;28;20198;-67
2022/02/24 06:35:31;;;;;;;7.73;2.53;;;7.80;1.00;;;;;;5072595;28;20563;-67
2022/02/24 06:37:58;;;;;;;6.47;2.93;;;8.00;1.00;;;;;;5073309;28;20572;-67
2022/02/24 06:40:27;;;;;;;7.43;2.63;;;7.90;1.00;;;;;;5072993;28;20198;-68
2022/02/24 06:42:54;;;;;;;12.63;2.70;;;7.90;1.00;;;;;;5073105;28;20226;-67
2022/02/24 06:45:20;;;;;;;5.03;2.20;;;7.80;57.70;;;;;;5072699;28;20202;-70
2022/02/24 06:47:47;;;;;;;8.77;2.63;;;7.80;99.90;;;;;;5073025;28;20228;-70
2022/02/24 06:50:14;;;;;;;5.17;2.60;;;7.80;24.30;;;;;;5071547;28;20301;-71
2022/02/24 06:52:42;;;;;;;5.90;2.83;;;7.90;1.00;;;;;;5072424;28;20392;-71
2022/02/24 06:55:12;;;;;;;5.90;2.63;;;7.90;1.00;;;;;;5071945;28;20203;-70
2022/02/24 06:57:43;;;;;;;6.63;2.70;;;8.00;1.00;;;;;;5073100;28;20759;-70
2022/02/24 07:00:10;;;;;;;8.87;2.80;;;8.00;1.00;;;;;;5072824;28;20210;-70
2022/02/24 07:02:37;;;;;;;6.53;2.40;;;8.10;1.00;;;;;;5071718;28;20214;-70
2022/02/24 07:05:04;;;;;;;6.73;2.80;;;8.00;99.90;;;;;;5073312;28;20206;-70
2022/02/24 07:07:33;;;;;;;6.50;2.67;;;7.90;99.90;;;;;;5071039;28;20240;-70
2022/02/24 07:09:59;;;;;;;6.20;3.10;;;7.90;99.90;;;;;;5073081;28;20301;-70
2022/02/24 07:12:26;;;;;;;6.33;2.47;;;7.90;1.00;;;;;;5072008;28;20203;-70
2022/02/24 07:14:54;;;;;;;6.97;2.70;;;7.80;1.00;;;;;;5072678;28;20425;-70
2022/02/24 07:17:21;;;;;;;7.60;2.80;;;7.90;1.00;;;;;;5071585;28;20207;-70
2022/02/24 07:19:48;;;;;;;7.90;2.53;;;7.80;1.00;;;;;;5072854;28;20297;-70
2022/02/24 07:22:15;;;;;;;8.13;2.63;;;7.90;1.00;;;;;;5072477;28;20207;-70
2022/02/24 07:24:42;;;;;;;6.50;2.47;;;7.90;1.00;;;;;;5072357;28;20233;-70
2022/02/24 07:27:09;;;;;;;8.40;2.50;;;7.90;1.00;;;;;;5072349;28;20265;-70
2022/02/24 07:29:35;;;;;;;5.00;2.20;;;7.90;99.90;;;;;;5072011;28;20212;-70
2022/02/24 07:32:04;;;;;;;8.00;2.30;;;7.90;1.00;;;;;;5071722;28;20202;-71
2022/02/24 07:34:32;;;;;;;5.47;2.20;;;7.80;1.00;;;;;;5071385;28;20202;-70
2022/02/24 07:37:00;;;;;;;7.40;2.40;;;7.80;1.00;;;;;;5071709;28;20202;-71
2022/02/24 07:39:26;;;;;;;6.77;2.87;;;8.00;1.00;;;;;;5072154;28;20242;-70
2022/02/24 07:41:53;;;;;;;7.73;2.47;;;7.90;1.00;;;;;;5071908;28;20206;-70
2022/02/24 07:44:20;;;;;;;11.83;2.20;;;8.00;1.00;;;;;;5072206;28;20317;-70
2022/02/24 07:46:47;;;;;;;6.30;2.50;;;8.00;1.00;;;;;;5072315;28;20297;-70
2022/02/24 07:49:15;;;;;;;8.53;2.63;;;8.00;1.00;;;;;;5072349;28;20675;-70
2022/02/24 07:51:46;;;;;;;9.30;2.47;;;8.10;1.00;;;;;;5071336;28;20619;-70
2022/02/24 07:54:13;;;;;;;5.07;2.13;;;8.00;1.00;;;;;;5071161;28;20198;-70
2022/02/24 07:56:40;;;;;;;7.37;2.10;;;8.00;1.00;;;;;;5071460;28;20218;-70
2022/02/24 07:59:07;;;;;;;7.13;2.10;;;8.00;1.00;;;;;;5070804;28;20224;-71
2022/02/24 08:01:33;;;;;;;5.67;2.57;;;8.00;1.00;;;;;;5071346;28;20210;-70
2022/02/24 08:04:00;;;;;;;8.67;2.40;;;8.10;1.00;;;;;;5072208;28;20233;-70
2022/02/24 08:06:28;;;;;;;4.97;2.43;;;8.10;1.00;;;;;;5071302;28;20210;-70
2022/02/24 08:08:55;;;;;;;12.93;2.87;;;8.10;99.90;;;;;;5071723;28;20664;-70
2022/02/24 08:11:22;;;;;;;9.00;2.37;;;8.10;99.90;;;;;;5071230;28;20221;-71
2022/02/24 08:13:49;;;;;;;7.57;2.40;;;8.10;1.00;;;;;;5072169;28;20205;-70
2022/02/24 08:16:16;;;;;;;5.93;2.40;;;8.10;1.00;;;;;;5071258;28;20645;-70
2022/02/24 08:18:43;;;;;;;12.50;2.20;;;8.10;1.00;;;;;;5072538;28;20202;-71
2022/02/24 08:21:10;;;;;;;56.80;4.70;;;8.10;1.00;;;;;;5075201;28;20206;-70
2022/02/24 08:23:38;;;;;;;5.70;2.50;;;8.10;99.90;;;;;;5076124;28;20684;-70
2022/02/24 08:26:05;;;;;;;6.87;2.63;;;8.20;99.90;;;;;;5075760;28;20671;-71
2022/02/24 08:28:32;;;;;;;6.03;2.57;;;8.20;99.90;;;;;;5076269;28;20206;-70
2022/02/24 08:30:58;;;;;;;8.33;2.43;;;8.20;99.90;;;;;;5074735;28;20212;-70
2022/02/24 08:33:25;;;;;;;11.33;2.73;;;8.30;1.00;;;;;;5075273;28;20198;-70
2022/02/24 08:35:52;;;;;;;5.23;2.23;;;8.40;1.00;;;;;;5074842;28;20208;-70
2022/02/24 08:38:19;;;;;;;5.17;2.00;;;8.50;1.00;;;;;;5075669;28;20228;-70
2022/02/24 08:40:47;;;;;;;5.80;2.13;;;8.60;1.00;;;;;;5074633;28;20194;-70
2022/02/24 08:43:14;;;;;;;12.43;2.83;;;8.70;1.00;;;;;;5075553;28;20206;-70
2022/02/24 08:45:42;;;;;;;5.83;2.33;;;8.70;1.00;;;;;;5074251;28;20214;-70
2022/02/24 08:48:09;;;;;;;8.53;2.40;;;8.80;1.00;;;;;;5074729;28;20668;-70
2022/02/24 08:50:37;;;;;;;8.97;2.37;;;8.90;1.00;;;;;;5074699;28;20621;-70
2022/02/24 08:53:04;;;;;;;6.23;2.00;;;8.90;99.90;;;;;;5074189;28;20202;-70
2022/02/24 08:55:31;;;;;;;10.53;2.40;;;9.00;1.00;;;;;;5074554;28;20202;-70
2022/02/24 08:58:02;;;;;;;6.27;2.43;;;9.00;1.00;;;;;;5075572;28;20215;-70
2022/02/24 09:00:30;;;;;;;4.83;2.13;;;9.10;1.00;;;;;;5073906;28;20209;-70
2022/02/24 09:02:57;;;;;;;6.00;2.37;;;9.10;99.90;;;;;;5075229;28;20210;-70
2022/02/24 09:05:24;;;;;;;4.73;2.13;;;9.10;1.00;;;;;;5073870;28;20244;-70
2022/02/24 09:07:51;;;;;;;7.50;2.43;;;9.10;1.00;;;;;;5074299;28;20714;-70
2022/02/24 09:10:18;;;;;;;6.43;2.30;;;9.20;1.00;;;;;;5075473;28;20208;-70
2022/02/24 09:12:44;;;;;;;6.53;2.27;;;9.30;1.00;;;;;;5074715;28;20217;-70
2022/02/24 09:15:13;;;;;;;7.37;2.27;;;9.30;99.90;;;;;;5073648;28;20224;-70
2022/02/24 09:17:40;;;;;;;4.37;2.33;;;9.40;1.00;;;;;;5074856;28;20202;-70
2022/02/24 09:20:08;;;;;;;6.20;2.27;;;9.60;99.90;;;;;;5073807;28;20214;-70
2022/02/24 09:22:35;;;;;;;4.40;2.00;;;9.70;99.90;;;;;;5074579;28;20217;-70
2022/02/24 09:25:02;;;;;;;6.10;1.83;;;9.70;99.90;;;;;;5074569;28;20225;-70
2022/02/24 09:27:29;;;;;;;5.13;2.20;;;9.70;99.90;;;;;;5074636;28;20202;-70
2022/02/24 09:29:57;;;;;;;3.77;1.90;;;9.70;99.90;;;;;;5072741;28;20206;-70
2022/02/24 09:32:26;;;;;;;8.97;2.47;;;9.70;99.90;;;;;;5074268;28;20711;-70
2022/02/24 09:34:53;;;;;;;4.57;1.97;;;9.90;99.90;;;;;;5074548;28;20240;-70
2022/02/24 09:37:20;;;;;;;5.53;2.10;;;9.90;99.90;;;;;;5074048;28;20210;-70
2022/02/24 09:39:47;;;;;;;7.63;2.13;;;10.10;99.90;;;;;;5074906;28;20293;-70
2022/02/24 09:42:14;;;;;;;4.30;2.30;;;10.10;99.90;;;;;;5073850;28;20205;-70
2022/02/24 09:44:42;;;;;;;3.47;2.00;;;10.20;99.90;;;;;;5074241;28;20222;-70
2022/02/24 09:47:10;;;;;;;4.83;2.03;;;10.50;1.00;;;;;;5074255;28;20206;-70
2022/02/24 09:49:40;;;;;;;6.93;2.03;;;10.60;1.00;;;;;;5074292;28;20210;-70
2022/02/24 09:52:08;;;;;;;7.70;2.03;;;10.80;1.00;;;;;;5074685;28;20662;-70
2022/02/24 09:54:35;;;;;;;6.17;2.40;;;10.70;1.00;;;;;;5073648;28;20648;-70
2022/02/24 09:57:01;;;;;;;6.60;2.53;;;10.70;1.00;;;;;;5064800;28;20205;-70
2022/02/24 09:59:28;;;;;;;8.23;1.93;;;10.70;1.00;;;;;;5073308;28;20205;-70
2022/02/24 10:01:56;;;;;;;3.53;1.80;;;10.50;1.00;;;;;;5073360;28;20216;-70
2022/02/24 10:04:25;;;;;;;3.67;1.90;;;10.50;95.70;;;;;;5074237;28;20683;-70
2022/02/24 10:06:54;;;;;;;9.13;2.40;;;10.50;1.00;;;;;;5073277;28;20312;-70
2022/02/24 10:09:29;;;;;;;6.43;2.03;;;10.70;1.00;;;;;;5073538;28;20229;-70
2022/02/24 10:12:05;;;;;;;8.30;2.00;;;10.90;1.00;;;;;;5073659;28;20216;-73
2022/02/24 10:14:33;;;;;;;6.37;2.40;;;11.20;1.00;;;;;;5072953;28;20664;-73
2022/02/24 10:17:03;;;;;;;4.83;2.00;;;11.30;1.00;;;;;;5072753;28;20217;-74
2022/02/24 10:19:32;;;;;;;4.17;2.47;;;11.20;1.00;;;;;;5073653;28;20198;-74
2022/02/24 10:22:11;;;;;;;8.17;2.30;;;11.20;1.00;;;;;;5072950;28;20202;-74
2022/02/24 10:24:40;;;;;;;5.47;2.30;;;11.30;1.00;;;;;;5072935;28;20237;-73
2022/02/24 10:27:18;;;;;;;7.93;2.53;;;11.20;1.00;;;;;;5073438;28;20213;-73
2022/02/24 10:30:01;;;;;;;4.40;2.10;;;11.20;1.00;;;;;;5072762;28;20198;-73
2022/02/24 10:32:36;;;;;;;4.30;1.93;;;11.20;1.00;;;;;;5073456;28;20543;-73
2022/02/24 10:35:20;;;;;;;6.33;1.90;;;11.20;1.00;;;;;;5073522;28;20206;-73
2022/02/24 10:37:54;;;;;;;3.90;2.10;;;11.40;1.00;;;;;;5072796;28;20217;-73
2022/02/24 10:40:22;;;;;;;5.67;2.23;;;11.50;1.00;;;;;;5073520;28;20208;-74
2022/02/24 10:42:49;;;;;;;4.37;1.87;;;11.50;1.00;;;;;;5072325;28;20206;-73
2022/02/24 10:45:18;;;;;;;4.70;2.03;;;11.60;1.00;;;;;;5073189;28;20685;-73
2022/02/24 10:47:58;;;;;;;3.17;1.80;;;11.80;1.00;;;;;;5072622;28;20667;-73
2022/02/24 10:50:56;;;;;;;5.57;1.93;;;12.20;1.00;;;;;;5072685;28;20206;-73
2022/02/24 10:53:27;;;;;;;2.77;1.90;;;12.30;1.00;;;;;;4991498;28;20252;-73
2022/02/24 10:55:59;;;;;;;6.67;2.50;;;12.30;1.00;;;;;;5056394;28;20264;-73
2022/02/24 10:58:27;;;;;;;5.57;3.13;;;12.50;1.00;;;;;;5072829;28;20213;-73
2022/02/24 11:01:09;;;;;;;3.50;1.93;;;12.40;1.00;;;;;;5071791;28;20206;-73
2022/02/24 11:03:37;;;;;;;6.63;1.93;;;12.60;1.00;;;;;;5072244;28;20220;-73
2022/02/24 11:06:06;;;;;;;2.67;1.90;;;12.50;1.00;;;;;;5071738;28;20222;-73
2022/02/24 11:08:35;;;;;;;2.60;1.70;;;12.60;1.00;;;;;;5072384;28;20213;-74
2022/02/24 11:11:03;;;;;;;3.80;1.90;;;12.50;1.00;;;;;;5071945;28;20206;-74
2022/02/24 11:13:31;;;;;;;5.53;2.17;;;12.60;1.00;;;;;;5072663;28;20664;-73
2022/02/24 11:15:59;;;;;;;3.57;1.67;;;12.30;1.00;;;;;;5072875;28;20499;-74
2022/02/24 11:18:27;;;;;;;4.40;1.90;;;12.50;1.00;;;;;;5072535;28;20202;-74
2022/02/24 11:20:57;;;;;;;4.30;1.90;;;12.30;1.00;;;;;;5072716;28;20584;-73
2022/02/24 11:23:24;;;;;;;5.53;1.53;;;12.40;1.00;;;;;;5072148;28;20214;-74
2022/02/24 11:26:30;;;;;;;3.93;1.90;;;12.50;1.00;;;;;;5072190;28;20265;-73
2022/02/24 11:29:04;;;;;;;6.77;1.90;;;12.70;1.00;;;;;;5071997;28;20220;-74
2022/02/24 11:31:39;;;;;;;5.17;1.50;;;12.80;1.00;;;;;;5071731;28;20216;-73
2022/02/24 11:34:06;;;;;;;4.10;1.70;;;13.00;99.90;;;;;;5072738;28;20237;-75
2022/02/24 11:36:40;;;;;;;3.77;1.60;;;13.00;1.00;;;;;;5067359;28;20275;-75
2022/02/24 11:39:09;;;;;;;3.20;1.97;;;12.90;99.90;;;;;;5064987;28;20574;-74
2022/02/24 11:41:53;;;;;;;4.87;1.97;;;13.00;99.90;;;;;;5068790;28;20256;-74
2022/02/24 11:44:38;;;;;;;3.47;1.73;;;13.10;1.00;;;;;;5071559;28;20222;-75
2022/02/24 11:47:07;;;;;;;7.00;2.23;;;12.60;1.00;;;;;;5070488;28;20202;-74
2022/02/24 11:50:13;;;;;;;4.07;1.80;;;12.60;1.00;;;;;;5051634;28;20245;-74
2022/02/24 11:52:52;;;;;;;5.50;1.67;;;12.30;1.00;;;;;;5050388;28;20210;-74
2022/02/24 11:55:44;;;;;;;3.17;1.90;;;12.10;1.00;;;;;;5070754;28;20202;-74
2022/02/24 11:59:03;;;;;;;5.77;1.90;;;12.00;1.00;;;;;;5072327;28;20671;-75
2022/02/24 12:01:38;;;;;;;4.07;1.73;;;12.30;1.00;;;;;;5066033;28;20653;-74
2022/02/24 12:04:17;;;;;;;4.47;1.60;;;12.30;1.00;;;;;;5071860;28;20218;-74
2022/02/24 12:06:49;;;;;;;4.87;1.87;;;12.40;1.00;;;;;;5071566;28;20285;-75
2022/02/24 12:09:25;;;;;;;6.90;1.37;;;12.40;1.00;;;;;;5071974;28;20204;-74
2022/02/24 12:11:53;;;;;;;3.63;1.50;;;12.50;1.00;;;;;;5072403;28;20666;-73
2022/02/24 12:14:46;;;;;;;4.33;1.60;;;12.60;1.00;;;;;;5070805;28;20584;-74
2022/02/24 12:17:16;;;;;;;2.83;1.50;;;12.60;1.00;;;;;;5071431;28;20214;-76
2022/02/24 12:19:47;;;;;;;3.30;1.80;;;12.60;1.00;;;;;;5071158;28;20258;-75
2022/02/24 12:22:19;;;;;;;5.10;1.67;;;12.30;1.00;;;;;;5071330;28;20590;-75
2022/02/24 12:24:48;;;;;;;3.63;1.90;;;12.10;1.00;;;;;;5071812;28;20213;-74
2022/02/24 12:27:38;;;;;;;5.77;2.57;;;11.90;1.00;;;;;;5051830;28;20218;-74
2022/02/24 12:30:26;;;;;;;3.43;1.50;;;11.70;1.00;;;;;;5064864;28;20218;-74
2022/02/24 12:33:04;;;;;;;5.90;2.30;;;11.80;1.00;;;;;;5071189;28;20210;-73
2022/02/24 12:35:33;;;;;;;4.73;1.90;;;11.80;1.00;;;;;;5071531;28;20691;-73
2022/02/24 12:38:03;;;;;;;5.20;1.90;;;11.80;1.00;;;;;;5071585;28;20221;-72
2022/02/24 12:40:32;;;;;;;4.30;1.90;;;12.00;1.00;;;;;;5071294;28;20817;-75
2022/02/24 12:43:00;;;;;;;6.17;2.03;;;12.10;1.00;;;;;;5071575;28;20202;-75
2022/02/24 12:45:29;;;;;;;2.50;1.60;;;12.10;1.00;;;;;;5070890;28;20703;-75
2022/02/24 12:47:59;;;;;;;5.47;1.83;;;12.00;1.00;;;;;;5071926;28;20573;-74
2022/02/24 12:50:33;;;;;;;7.13;1.90;;;11.90;1.00;;;;;;5070762;28;20202;-75
2022/02/24 12:53:07;;;;;;;3.87;1.70;;;11.80;1.00;;;;;;5070806;28;20213;-75
2022/02/24 12:55:35;;;;;;;3.93;2.03;;;11.90;1.00;;;;;;5070947;28;20210;-75
2022/02/24 12:58:02;;;;;;;4.83;1.93;;;11.80;1.00;;;;;;5071459;28;20207;-73
2022/02/24 13:00:34;;;;;;;2.50;1.80;;;11.70;1.00;;;;;;5067471;28;20563;-73
2022/02/24 13:03:04;;;;;;;5.47;1.93;;;11.70;1.00;;;;;;5061578;28;20290;-74
2022/02/24 13:05:33;;;;;;;5.67;2.00;;;11.90;1.00;;;;;;5060701;28;20258;-74
2022/02/24 13:11:01;;;;;;;3.37;1.70;;;12.30;1.00;;;;;;5058167;28;20575;-75
2022/02/24 13:13:28;;;;;;;2.93;1.70;;;12.20;1.00;;;;;;5075218;28;20202;-75
2022/02/24 13:15:59;;;;;;;4.40;1.70;;;12.10;1.00;;;;;;5074046;28;20204;-74